Main page
METAR-TAF:

METAR-TAF

Airports :

Kinloss, Scotland

RAF Kinloss

latitude: 57-39N, longitude: 003-34W, elevation: 7 m

Current weather observation

The report was made 1 hour and 10 minutes ago, at 12:50 UTC
Wind 23 kt from the West
Temperature 14°C
Humidity 63%
Pressure 1000 hPa
Visibility 10 km or more

METAR: EGQK 241250Z AUTO 26023KT 9999 FEW036/// BKN042/// 14/07 Q1000

Time: 15:00 (14:00 UTC)

Forecast

The report was made 29 hours and 18 minutes ago, at 08:42 UTC
Forecast valid from 23 at 09 UTC to 23 at 17 UTC
Wind 16 kt from the West/Southwest with gusts up to 28 kt
Visibility 10 km or more
Few clouds at a height of 2200 ft
Scattered clouds at a height of 4500 ft

TAF: EGQK 230842Z 2309/2317 25016G28KT 9999 FEW022 SCT045

Weather observations and forecasts of more than 4000 airports (METAR and TAF reports).

The available stations are represented by yellow and red dots on the map.

Hover mouse over dot to see the name of the station.

Then click to see weather observations and forecasts.

To change the map : click on the green buttons with a black cross to zoom in, on the green button with a dash to zoom out, or on the green arrows for adjacent maps.


METAR-TAF: